Fort Russell, Illinois
Current Conditions -  °F | °C
As of 9:55 AM on Friday 24 Oct 2014 (Local Time) from KALN Reporting Station
Haze Haze  
Wind Chill: 14°   Ceiling: 500
Heat Index: 14°   Visibility: 5mi
Dew Point: 13°   Wind: 6mph
Humidity: 94%   Direction: 260°W
Pressure: 30.13"   Gusts: NA
Location:  38.9045°N, 90.0089°W
Report Text: KALN 241455Z 26005KT 5SM BR OVC005 14/13 A3013
Loading
Personal Weather Stations






























Interactive Weather Map
Tropical Storm Tracking
New forecast layout! Learn more

10-Day Weather Forecast

Advertisements
Track Severe Weather on mobile